createdAt,value
2023-03-05T00:01:45.535Z,0.00
2023-03-05T00:06:50.228Z,0.00
2023-03-05T00:11:54.811Z,0.00
2023-03-05T00:16:59.452Z,0.00
2023-03-05T00:22:04.123Z,2.50
2023-03-05T00:27:08.771Z,0.00
2023-03-05T00:32:13.785Z,0.00
2023-03-05T00:37:18.836Z,81.25
2023-03-05T00:42:23.409Z,0.00
2023-03-05T00:47:29.618Z,2.50
2023-03-05T01:47:58.117Z,3.50
2023-03-05T01:53:06.244Z,0.00
2023-03-05T01:58:14.768Z,0.00
2023-03-05T02:03:20.034Z,1.00
2023-03-05T02:08:24.848Z,0.00
2023-03-05T02:13:34.403Z,14.75
2023-03-05T02:18:39.133Z,40.75
2023-03-05T02:23:43.914Z,10.00
2023-03-05T02:28:50.888Z,21.67
2023-03-05T02:33:59.441Z,22.50
2023-03-05T02:39:04.555Z,13.33
2023-03-05T02:44:09.356Z,27.67
2023-03-05T02:49:14.266Z,24.00
2023-03-05T02:54:19.148Z,24.25
2023-03-05T02:59:24.162Z,40.33
2023-03-05T03:04:29.051Z,31.33
2023-03-05T03:09:37.416Z,15.25
2023-03-05T03:14:44.394Z,23.33
2023-03-05T03:19:49.637Z,17.50
2023-03-05T03:24:54.441Z,39.00
2023-03-05T03:30:03.786Z,40.33
2023-03-05T03:35:09.365Z,50.00
2023-03-05T03:40:15.870Z,49.00
2023-03-05T03:45:20.631Z,50.00
2023-03-05T03:50:26.199Z,49.25
2023-03-05T04:00:35.217Z,50.00
2023-03-05T04:05:39.884Z,57.75
2023-03-05T04:15:48.807Z,50.00
2023-03-05T04:20:53.456Z,50.00
2023-03-05T04:36:11.859Z,95.33
2023-03-05T04:41:16.539Z,60.25
2023-03-05T04:46:21.215Z,65.33
2023-03-05T04:51:26.089Z,54.50
2023-03-05T04:56:30.703Z,82.00
2023-03-05T05:01:36.700Z,60.75
2023-03-05T05:06:41.403Z,90.00
2023-03-05T05:11:46.051Z,89.67
2023-03-05T05:16:50.888Z,84.50
2023-03-05T05:21:55.625Z,96.00
2023-03-05T05:27:00.276Z,112.50
2023-03-05T05:32:06.692Z,74.50
2023-03-05T05:37:11.550Z,84.67
2023-03-05T05:47:21.513Z,95.67
2023-03-05T05:52:26.881Z,95.50
2023-03-05T05:57:31.879Z,97.00
2023-03-05T06:02:39.040Z,88.67
2023-03-05T06:07:44.318Z,93.50
2023-03-05T06:12:50.733Z,64.00
2023-03-05T06:17:55.831Z,91.33
2023-03-05T06:23:01.052Z,101.33
2023-03-05T06:28:05.888Z,72.00
2023-03-05T06:33:10.817Z,97.75
2023-03-05T06:38:15.602Z,96.00
2023-03-05T06:43:20.422Z,91.50
2023-03-05T06:48:25.249Z,92.00
2023-03-05T06:53:29.988Z,96.25
2023-03-05T06:58:34.737Z,107.00
2023-03-05T07:03:40.038Z,97.00
2023-03-05T07:08:48.142Z,133.00
2023-03-05T07:13:53.298Z,108.50
2023-03-05T07:18:59.762Z,94.33
2023-03-05T07:24:05.651Z,90.25
2023-03-05T07:29:10.935Z,96.33
2023-03-05T07:34:15.595Z,98.67
2023-03-05T07:39:21.051Z,86.25
2023-03-05T07:44:25.773Z,108.25
2023-03-05T07:49:30.463Z,108.33
2023-03-05T07:54:38.871Z,98.50
2023-03-05T07:59:44.420Z,102.25
2023-03-05T08:04:49.202Z,72.67
2023-03-05T08:09:53.816Z,105.50
2023-03-05T08:14:58.422Z,90.00
2023-03-05T08:20:06.663Z,87.67
2023-03-05T08:25:11.472Z,75.33
2023-03-05T08:30:19.736Z,87.00
2023-03-05T08:35:24.849Z,88.75
2023-03-05T08:40:29.626Z,74.50
2023-03-05T08:45:34.288Z,69.67
2023-03-05T08:50:39.285Z,70.25
2023-03-05T08:55:44.341Z,80.00
2023-03-05T09:00:49.072Z,82.33
2023-03-05T09:05:54.323Z,94.50
2023-03-05T09:10:59.275Z,109.33
2023-03-05T09:16:07.579Z,82.67
2023-03-05T09:21:15.235Z,92.00
2023-03-05T09:26:21.725Z,102.00
2023-03-05T09:31:26.518Z,78.00
2023-03-05T09:36:32.522Z,106.33
2023-03-05T09:41:58.382Z,82.67
2023-03-05T09:47:33.640Z,82.50
2023-03-05T09:53:00.608Z,75.25
2023-03-05T09:58:33.176Z,67.50
2023-03-05T10:03:46.980Z,61.50
2023-03-05T10:09:14.092Z,60.33
2023-03-05T10:14:28.840Z,80.33
2023-03-05T10:19:33.705Z,50.00
2023-03-05T10:25:07.301Z,60.00
2023-03-05T10:30:25.812Z,49.75
2023-03-05T10:35:56.503Z,49.75
2023-03-05T10:41:13.686Z,49.67
2023-03-05T10:46:20.795Z,54.67
2023-03-05T10:51:38.064Z,57.33
2023-03-05T10:56:42.703Z,73.00
2023-03-05T11:02:06.275Z,50.00
2023-03-05T11:07:17.182Z,63.00
2023-03-05T11:12:23.288Z,57.00
2023-03-05T11:17:50.210Z,76.50
2023-03-05T11:23:26.861Z,50.00
2023-03-05T11:28:35.287Z,54.75
2023-03-05T11:33:40.779Z,50.00
2023-03-05T11:39:08.999Z,72.00
2023-03-05T11:44:31.530Z,47.33
2023-03-05T11:49:45.269Z,50.00
2023-03-05T11:55:01.223Z,48.33
2023-03-05T12:00:15.708Z,50.00
2023-03-05T12:05:22.794Z,42.67
2023-03-05T12:16:01.383Z,49.00
2023-03-05T12:21:17.315Z,41.67
2023-03-05T12:27:07.772Z,49.00
2023-03-05T12:32:30.407Z,24.00
2023-03-05T12:37:36.097Z,49.75
2023-03-05T12:43:03.092Z,44.67
2023-03-05T12:48:13.376Z,38.00
2023-03-05T12:53:22.711Z,29.25
2023-03-05T12:58:45.935Z,16.75
2023-03-05T13:04:14.900Z,49.50
2023-03-05T13:09:33.340Z,43.00
2023-03-05T13:14:46.652Z,30.00
2023-03-05T13:25:22.626Z,24.33
2023-03-05T13:30:32.587Z,23.00
2023-03-05T13:35:48.797Z,13.00
2023-03-05T13:41:08.214Z,20.00
2023-03-05T13:46:15.082Z,12.00
2023-03-05T13:56:27.351Z,22.50
2023-03-05T14:01:33.712Z,20.67
2023-03-05T14:06:52.636Z,28.25
2023-03-05T14:12:40.124Z,21.50
2023-03-05T14:17:46.818Z,83.33
2023-03-05T14:22:54.632Z,22.00
2023-03-05T14:28:00.613Z,31.67
2023-03-05T14:38:25.814Z,7.33
2023-03-05T14:43:32.141Z,5.50
2023-03-05T14:48:38.580Z,28.00
2023-03-05T14:53:48.204Z,12.67
2023-03-05T14:58:53.612Z,4.67
2023-03-05T15:03:58.961Z,29.25
2023-03-05T15:09:06.825Z,0.00
2023-03-05T15:14:12.761Z,8.00
2023-03-05T15:19:18.189Z,4.00
2023-03-05T15:24:24.787Z,0.00
2023-03-05T15:29:30.018Z,14.25
2023-03-05T15:34:36.263Z,5.50
2023-03-05T15:39:41.549Z,5.50
2023-03-05T15:44:46.834Z,1.50
2023-03-05T15:49:52.209Z,82.00
2023-03-05T16:00:01.921Z,12.00
2023-03-05T16:05:08.070Z,0.00
2023-03-05T16:10:19.445Z,0.00
2023-03-05T16:15:25.498Z,20.67
2023-03-05T16:20:30.923Z,3.33
2023-03-05T16:25:36.737Z,14.67
2023-03-05T16:30:42.264Z,17.75
2023-03-05T16:35:47.397Z,1.33
2023-03-05T16:41:07.268Z,33.00
2023-03-05T16:46:14.754Z,11.00
2023-03-05T16:51:20.869Z,12.00
2023-03-05T16:56:26.185Z,13.75
2023-03-05T17:06:36.942Z,10.00
2023-03-05T17:11:42.097Z,0.00
2023-03-05T17:16:47.388Z,12.33
2023-03-05T17:21:53.816Z,0.00
2023-03-05T17:26:58.934Z,5.00
2023-03-05T17:32:04.012Z,0.00
2023-03-05T17:37:09.059Z,11.25
2023-03-05T17:42:14.521Z,25.33
2023-03-05T17:47:19.472Z,1.00
2023-03-05T17:52:24.896Z,11.00
2023-03-05T17:57:29.662Z,29.75
2023-03-05T18:02:35.027Z,6.00
2023-03-05T18:07:40.744Z,18.00
2023-03-05T18:12:46.063Z,11.25
2023-03-05T18:17:51.257Z,17.50
2023-03-05T18:22:57.059Z,11.50
2023-03-05T18:28:07.819Z,0.00
2023-03-05T18:33:22.855Z,1.00
2023-03-05T18:38:30.790Z,0.00
2023-03-05T18:43:36.144Z,6.50
2023-03-05T18:48:42.299Z,1.00
2023-03-05T18:53:47.943Z,0.00
2023-03-05T18:58:53.425Z,0.00
2023-03-05T19:03:58.517Z,44.50
2023-03-05T19:09:09.762Z,1.00
2023-03-05T19:14:14.489Z,0.50
2023-03-05T19:19:26.465Z,7.33
2023-03-05T19:24:32.406Z,93.00
2023-03-05T19:29:38.771Z,0.00
2023-03-05T19:34:44.084Z,0.00
2023-03-05T19:39:48.778Z,1.33
2023-03-05T19:44:53.397Z,14.00
2023-03-05T19:49:58.069Z,27.50
2023-03-05T20:00:07.294Z,0.00
2023-03-05T20:05:12.063Z,13.67
2023-03-05T20:10:16.717Z,15.00
2023-03-05T20:15:30.300Z,2.00
2023-03-05T20:20:34.901Z,2.50
2023-03-05T20:25:42.429Z,0.00
2023-03-05T20:30:47.042Z,3.00
2023-03-05T20:35:51.971Z,0.00
2023-03-05T20:41:00.242Z,0.50
2023-03-05T20:46:06.184Z,6.50
2023-03-05T20:51:16.463Z,8.00
2023-03-05T20:56:21.357Z,0.00
2023-03-05T21:01:26.722Z,0.00
2023-03-05T21:06:33.117Z,12.25
2023-03-05T21:11:38.400Z,2.00
2023-03-05T21:16:43.190Z,0.00
2023-03-05T21:21:47.829Z,0.00
2023-03-05T21:26:52.511Z,0.00
2023-03-05T21:31:57.220Z,0.00
2023-03-05T21:37:01.818Z,0.00
2023-03-05T21:42:06.591Z,0.00
2023-03-05T21:47:11.338Z,0.00
2023-03-05T21:52:16.458Z,0.00
2023-03-05T21:57:21.735Z,3.50
2023-03-05T22:02:27.332Z,0.00
2023-03-05T22:07:32.587Z,0.00
2023-03-05T22:13:05.371Z,0.00
2023-03-05T22:18:10.043Z,0.00
2023-03-05T22:23:15.574Z,32.00
2023-03-05T22:28:20.204Z,22.00
2023-03-05T22:38:29.206Z,0.00
2023-03-05T22:43:33.854Z,1.33
2023-03-05T22:48:38.578Z,0.00
2023-03-05T22:53:43.950Z,2.00
2023-03-05T22:58:49.472Z,0.00
2023-03-05T23:04:04.499Z,21.75
2023-03-05T23:09:09.181Z,3.00
2023-03-05T23:14:14.045Z,2.67
2023-03-05T23:19:18.786Z,3.50
2023-03-05T23:24:23.474Z,50.75
2023-03-05T23:34:33.313Z,2.67
2023-03-05T23:39:37.973Z,2.00
2023-03-05T23:44:42.672Z,2.00
2023-03-05T23:49:47.447Z,0.00
2023-03-05T23:54:52.090Z,0.00
2023-03-05T23:59:56.807Z,1.50
